createdAt,value
2018-05-13T00:01:35.551Z,93286.29
2018-05-13T00:04:03.970Z,93297.84
2018-05-13T00:06:33.787Z,93292.55
2018-05-13T00:09:02.284Z,93297.03
2018-05-13T00:11:30.720Z,93293.75
2018-05-13T00:13:59.204Z,93298.17
2018-05-13T00:16:27.610Z,93300.83
2018-05-13T00:18:56.035Z,93301.63
2018-05-13T00:21:24.440Z,93299.34
2018-05-13T00:23:52.832Z,93299.38
2018-05-13T00:26:23.676Z,93306.45
2018-05-13T00:28:52.095Z,93309.30
2018-05-13T00:31:20.576Z,93307.34
2018-05-13T00:33:49.322Z,93295.30
2018-05-13T00:36:19.792Z,93299.98
2018-05-13T00:38:48.153Z,93301.98
2018-05-13T00:41:16.587Z,93305.30
2018-05-13T00:43:44.996Z,93324.27
2018-05-13T00:46:13.440Z,93321.53
2018-05-13T00:48:43.995Z,93317.55
2018-05-13T00:51:13.488Z,93321.66
2018-05-13T00:53:41.892Z,93313.12
2018-05-13T00:56:10.373Z,93311.02
2018-05-13T00:58:38.784Z,93317.69
2018-05-13T01:01:07.214Z,93319.91
2018-05-13T01:03:35.637Z,93327.04
2018-05-13T01:06:04.080Z,93321.33
2018-05-13T01:08:34.603Z,93321.55
2018-05-13T01:11:04.680Z,93322.85
2018-05-13T01:13:33.111Z,93317.97
2018-05-13T01:16:01.563Z,93310.19
2018-05-13T01:18:29.992Z,93304.11
2018-05-13T01:20:58.411Z,93306.72
2018-05-13T01:23:27.180Z,93310.63
2018-05-13T01:25:55.616Z,93307.28
2018-05-13T01:28:24.051Z,93305.16
2018-05-13T01:30:52.434Z,93298.27
2018-05-13T01:33:20.852Z,93301.71
2018-05-13T01:35:49.642Z,93301.00
2018-05-13T01:38:19.198Z,93301.95
2018-05-13T01:40:48.670Z,93310.16
2018-05-13T01:43:17.032Z,93309.92
2018-05-13T01:45:45.414Z,93305.09
2018-05-13T01:48:13.858Z,93303.73
2018-05-13T01:50:45.579Z,93299.28
2018-05-13T01:53:13.945Z,93299.98
2018-05-13T01:55:42.295Z,93300.78
2018-05-13T01:58:10.611Z,93300.84
2018-05-13T02:00:38.962Z,93302.00
2018-05-13T02:03:07.315Z,93307.69
2018-05-13T02:05:35.722Z,93314.47
2018-05-13T02:08:04.122Z,93311.25
2018-05-13T02:10:32.914Z,93316.52
2018-05-13T02:13:01.283Z,93320.36
2018-05-13T02:15:29.602Z,93312.84
2018-05-13T02:17:58.967Z,93310.02
2018-05-13T02:20:27.602Z,93309.17
2018-05-13T02:22:57.512Z,93297.78
2018-05-13T02:25:25.866Z,93305.44
2018-05-13T02:27:55.456Z,93307.23
2018-05-13T02:30:23.811Z,93304.13
2018-05-13T02:32:52.219Z,93303.80
2018-05-13T02:35:21.763Z,93306.66
2018-05-13T02:37:51.280Z,93308.05
2018-05-13T02:40:20.015Z,93308.97
2018-05-13T02:42:48.350Z,93305.73
2018-05-13T02:45:16.676Z,93305.45
2018-05-13T02:47:45.339Z,93308.89
2018-05-13T02:50:13.700Z,93314.13
2018-05-13T02:52:42.111Z,93314.95
2018-05-13T02:55:10.492Z,93316.05
2018-05-13T02:57:38.828Z,93311.30
2018-05-13T03:00:09.282Z,93308.05
2018-05-13T03:02:37.686Z,93306.80
2018-05-13T03:05:06.054Z,93309.63
2018-05-13T03:07:38.792Z,93307.61
2018-05-13T03:10:07.143Z,93308.80
2018-05-13T03:12:36.626Z,93311.58
2018-05-13T03:15:05.377Z,93306.90
2018-05-13T03:17:33.723Z,93307.58
2018-05-13T03:20:02.127Z,93314.90
2018-05-13T03:22:30.499Z,93313.97
2018-05-13T03:24:58.790Z,93313.94
2018-05-13T03:27:27.498Z,93311.52
2018-05-13T03:29:55.847Z,93311.95
2018-05-13T03:32:24.206Z,93307.86
2018-05-13T03:34:55.167Z,93313.94
2018-05-13T03:37:24.460Z,93311.43
2018-05-13T03:39:52.862Z,93313.59
2018-05-13T03:42:22.758Z,93314.67
2018-05-13T03:44:53.304Z,93306.66
2018-05-13T03:47:23.436Z,93311.41
2018-05-13T03:49:51.898Z,93311.95
2018-05-13T03:52:20.605Z,93320.23
2018-05-13T03:54:51.054Z,93311.86
2018-05-13T03:57:19.435Z,93310.55
2018-05-13T03:59:48.067Z,93312.67
2018-05-13T04:02:16.422Z,93318.16
2018-05-13T04:04:44.762Z,93321.73
2018-05-13T04:07:13.163Z,93311.17
2018-05-13T04:09:47.839Z,93315.66
2018-05-13T04:12:25.438Z,93311.55
2018-05-13T04:15:00.158Z,93310.48
2018-05-13T04:17:30.526Z,93312.45
2018-05-13T04:19:59.794Z,93312.12
2018-05-13T04:22:30.632Z,93317.98
2018-05-13T04:24:59.004Z,93325.34
2018-05-13T04:27:28.872Z,93320.55
2018-05-13T04:29:57.252Z,93318.03
2018-05-13T04:32:25.633Z,93319.62
2018-05-13T04:34:53.967Z,93318.31
2018-05-13T04:37:31.494Z,93320.42
2018-05-13T04:39:59.912Z,93327.44
2018-05-13T04:42:28.254Z,93326.19
2018-05-13T04:44:59.127Z,93326.53
2018-05-13T04:47:27.492Z,93317.95
2018-05-13T04:49:55.872Z,93324.15
2018-05-13T04:52:26.334Z,93324.26
2018-05-13T04:54:54.734Z,93324.53
2018-05-13T04:57:25.002Z,93324.08
2018-05-13T04:59:53.387Z,93321.38
2018-05-13T05:02:21.761Z,93315.03
2018-05-13T05:04:50.127Z,93319.92
2018-05-13T05:07:18.490Z,93322.49
2018-05-13T05:09:49.358Z,93326.61
2018-05-13T05:12:17.707Z,93329.16
2018-05-13T05:14:46.070Z,93336.27
2018-05-13T05:17:14.753Z,93327.88
2018-05-13T05:19:43.121Z,93327.08
2018-05-13T05:22:11.508Z,93331.55
2018-05-13T05:24:41.315Z,93334.89
2018-05-13T05:27:09.673Z,93331.53
2018-05-13T05:29:39.595Z,93334.41
2018-05-13T05:32:07.950Z,93335.95
2018-05-13T05:34:38.302Z,93338.38
2018-05-13T05:37:06.621Z,93344.12
2018-05-13T05:39:34.991Z,93341.73
2018-05-13T05:42:03.387Z,93335.60
2018-05-13T05:44:31.812Z,93335.28
2018-05-13T05:47:00.167Z,93339.31
2018-05-13T05:49:28.499Z,93340.87
2018-05-13T05:51:56.935Z,93337.72
2018-05-13T05:54:25.286Z,93338.33
2018-05-13T05:56:53.679Z,93334.55
2018-05-13T05:59:23.408Z,93342.10
2018-05-13T06:01:51.766Z,93339.64
2018-05-13T06:04:20.066Z,93347.77
2018-05-13T06:06:49.846Z,93346.83
2018-05-13T06:09:18.205Z,93349.78
2018-05-13T06:11:46.527Z,93341.41
2018-05-13T06:14:15.915Z,93336.59
2018-05-13T06:16:44.255Z,93341.32
2018-05-13T06:19:12.763Z,93338.25
2018-05-13T06:21:41.111Z,93339.40
2018-05-13T06:24:09.488Z,93344.31
2018-05-13T06:26:37.854Z,93338.53
2018-05-13T06:29:06.806Z,93339.19
2018-05-13T06:31:35.227Z,93333.22
2018-05-13T06:34:03.936Z,93335.66
2018-05-13T06:36:32.315Z,93332.24
2018-05-13T06:39:00.643Z,93338.39
2018-05-13T06:41:29.346Z,93338.08
2018-05-13T06:43:57.723Z,93336.50
2018-05-13T06:46:26.064Z,93333.95
2018-05-13T06:48:54.828Z,93335.70
2018-05-13T06:51:23.339Z,93339.63
2018-05-13T06:53:52.724Z,93338.73
2018-05-13T06:56:21.391Z,93345.75
2018-05-13T06:58:49.755Z,93346.94
2018-05-13T07:01:18.100Z,93344.58
2018-05-13T07:03:46.782Z,93347.50
2018-05-13T07:06:15.127Z,93344.16
2018-05-13T07:08:43.455Z,93336.89
2018-05-13T07:11:11.864Z,93347.56
2018-05-13T07:13:41.288Z,93333.47
2018-05-13T07:16:11.175Z,93345.92
2018-05-13T07:18:39.551Z,93337.30
2018-05-13T07:21:07.907Z,93339.80
2018-05-13T07:23:36.317Z,93338.69
2018-05-13T07:26:04.696Z,93332.57
2018-05-13T07:28:33.178Z,93329.59
2018-05-13T07:31:01.966Z,93320.88
2018-05-13T07:33:30.332Z,93330.02
2018-05-13T07:35:58.770Z,93332.63
2018-05-13T07:38:27.152Z,93334.81
2018-05-13T07:40:56.655Z,93333.66
2018-05-13T07:43:25.489Z,93327.17
2018-05-13T07:45:53.845Z,93324.20
2018-05-13T07:48:22.191Z,93325.94
2018-05-13T07:50:50.558Z,93323.95
2018-05-13T07:53:18.902Z,93327.31
2018-05-13T07:55:47.295Z,93327.61
2018-05-13T07:58:15.840Z,93326.34
2018-05-13T08:00:45.772Z,93324.80
2018-05-13T08:03:14.216Z,93324.78
2018-05-13T08:05:44.373Z,93327.53
2018-05-13T08:08:12.731Z,93327.88
2018-05-13T08:10:41.145Z,93330.25
2018-05-13T08:13:09.595Z,93325.36
2018-05-13T08:15:39.305Z,93326.27
2018-05-13T08:18:07.705Z,93322.69
2018-05-13T08:20:36.143Z,93324.25
2018-05-13T08:23:04.502Z,93324.25
2018-05-13T08:25:34.567Z,93322.52
2018-05-13T08:28:02.937Z,93317.89
2018-05-13T08:30:32.732Z,93319.02
2018-05-13T08:33:01.110Z,93316.34
2018-05-13T08:35:30.496Z,93311.61
2018-05-13T08:38:00.016Z,93316.72
2018-05-13T08:40:28.478Z,93312.89
2018-05-13T08:42:56.851Z,93307.30
2018-05-13T08:45:25.235Z,93303.69
2018-05-13T08:47:53.542Z,93309.68
2018-05-13T08:50:23.127Z,93315.27
2018-05-13T08:52:51.551Z,93318.97
2018-05-13T08:55:19.927Z,93306.78
2018-05-13T08:57:48.354Z,93314.38
2018-05-13T09:00:16.738Z,93317.47
2018-05-13T09:02:45.561Z,93307.09
2018-05-13T09:05:13.964Z,93310.34
2018-05-13T09:07:42.288Z,93315.84
2018-05-13T09:10:13.670Z,93317.63
2018-05-13T09:12:42.051Z,93313.00
2018-05-13T09:15:10.378Z,93313.17
2018-05-13T09:17:40.262Z,93306.94
2018-05-13T09:20:10.164Z,93308.33
2018-05-13T09:22:38.552Z,93309.05
2018-05-13T09:25:06.939Z,93310.03
2018-05-13T09:27:35.251Z,93311.92
2018-05-13T09:30:03.736Z,93308.87
2018-05-13T09:32:32.107Z,93307.33
2018-05-13T09:35:00.479Z,93294.88
2018-05-13T09:37:29.160Z,93299.25
2018-05-13T09:39:57.527Z,93297.69
2018-05-13T09:42:25.951Z,93296.47
2018-05-13T09:44:55.795Z,93291.22
2018-05-13T09:47:24.099Z,93297.03
2018-05-13T09:49:52.448Z,93288.24
2018-05-13T09:52:21.219Z,93288.78
2018-05-13T09:54:50.601Z,93293.14
2018-05-13T09:57:18.970Z,93290.98
2018-05-13T09:59:47.399Z,93280.25
2018-05-13T10:02:15.687Z,93283.15
2018-05-13T10:04:44.102Z,93282.75
2018-05-13T10:07:13.798Z,93284.92
2018-05-13T10:09:42.110Z,93278.86
2018-05-13T10:12:10.526Z,93278.45
2018-05-13T10:14:38.923Z,93274.55
2018-05-13T10:17:07.622Z,93268.03
2018-05-13T10:19:36.072Z,93272.05
2018-05-13T10:22:04.407Z,93273.22
2018-05-13T10:24:32.814Z,93269.75
2018-05-13T10:27:01.163Z,93269.97
2018-05-13T10:29:29.499Z,93266.60
2018-05-13T10:31:59.268Z,93272.35
2018-05-13T10:34:27.614Z,93267.84
2018-05-13T10:36:55.987Z,93272.95
2018-05-13T10:39:25.892Z,93264.99
2018-05-13T10:41:55.677Z,93260.73
2018-05-13T10:44:24.047Z,93257.68
2018-05-13T10:46:53.881Z,93263.83
2018-05-13T10:49:22.264Z,93272.12
2018-05-13T10:51:50.642Z,93269.70
2018-05-13T10:54:19.378Z,93271.39
2018-05-13T10:56:50.683Z,93271.22
2018-05-13T10:59:19.023Z,93270.28
2018-05-13T11:01:47.435Z,93275.80
2018-05-13T11:04:16.239Z,93279.04
2018-05-13T11:06:44.623Z,93276.72
2018-05-13T11:09:13.000Z,93279.32
2018-05-13T11:11:41.348Z,93278.70
2018-05-13T11:14:11.206Z,93275.64
2018-05-13T11:16:39.599Z,93269.16
2018-05-13T11:19:08.308Z,93267.59
2018-05-13T11:21:36.609Z,93265.37
2018-05-13T11:24:04.970Z,93257.96
2018-05-13T11:26:33.486Z,93259.43
2018-05-13T11:29:01.886Z,93244.75
2018-05-13T11:31:30.302Z,93246.95
2018-05-13T11:33:58.679Z,93244.62
2018-05-13T11:36:30.939Z,93243.34
2018-05-13T11:39:00.688Z,93241.37
2018-05-13T11:41:29.091Z,93236.98
2018-05-13T11:43:57.788Z,93238.84
2018-05-13T11:46:26.187Z,93235.88
2018-05-13T11:48:54.591Z,93233.61
2018-05-13T11:51:23.001Z,93232.67
2018-05-13T11:53:52.774Z,93231.94
2018-05-13T11:56:21.149Z,93229.62
2018-05-13T11:58:49.548Z,93231.98
2018-05-13T12:01:18.963Z,93231.94
2018-05-13T12:03:47.371Z,93229.05
2018-05-13T12:06:15.809Z,93227.16
2018-05-13T12:08:44.236Z,93231.58
2018-05-13T12:11:13.943Z,93224.42
2018-05-13T12:13:42.335Z,93230.12
2018-05-13T12:16:10.716Z,93232.16
2018-05-13T12:18:40.151Z,93234.62
2018-05-13T12:21:09.603Z,93225.02
2018-05-13T12:23:37.928Z,93220.95
2018-05-13T12:26:06.316Z,93224.21
2018-05-13T12:28:34.676Z,93221.53
2018-05-13T12:31:03.039Z,93226.00
2018-05-13T12:33:31.348Z,93224.42
2018-05-13T12:35:59.743Z,93214.09
2018-05-13T12:38:28.104Z,93206.69
2018-05-13T12:40:58.093Z,93210.84
2018-05-13T12:43:26.499Z,93209.92
2018-05-13T12:45:54.887Z,93208.39
2018-05-13T12:48:23.614Z,93209.59
2018-05-13T12:50:51.977Z,93202.74
2018-05-13T12:53:21.791Z,93196.92
2018-05-13T12:55:51.166Z,93197.30
2018-05-13T12:58:20.608Z,93194.60
2018-05-13T13:00:49.295Z,93193.38
2018-05-13T13:03:17.649Z,93187.94
2018-05-13T13:05:46.026Z,93180.23
2018-05-13T13:08:14.747Z,93179.20
2018-05-13T13:10:44.411Z,93179.02
2018-05-13T13:13:12.507Z,93174.64
2018-05-13T13:15:43.294Z,93172.18
2018-05-13T13:18:11.665Z,93168.05
2018-05-13T13:20:40.307Z,93161.63
2018-05-13T13:23:08.675Z,93157.56
2018-05-13T13:25:37.008Z,93159.45
2018-05-13T13:28:07.037Z,93157.38
2018-05-13T13:30:35.425Z,93156.28
2018-05-13T13:33:03.854Z,93153.31
2018-05-13T13:35:32.255Z,93152.49
2018-05-13T13:38:02.057Z,93151.66
2018-05-13T13:40:30.825Z,93150.75
2018-05-13T13:42:59.174Z,93145.23
2018-05-13T13:45:29.029Z,93148.62
2018-05-13T13:47:58.048Z,93150.52
2018-05-13T13:50:30.293Z,93141.95
2018-05-13T13:52:58.971Z,93140.20
2018-05-13T13:55:27.371Z,93141.69
2018-05-13T13:57:57.454Z,93141.11
2018-05-13T14:00:25.894Z,93135.89
2018-05-13T14:02:54.331Z,93135.95
2018-05-13T14:05:23.771Z,93122.25
2018-05-13T14:07:53.635Z,93124.70
2018-05-13T14:10:22.033Z,93123.61
2018-05-13T14:12:50.370Z,93122.05
2018-05-13T14:15:18.919Z,93124.98
2018-05-13T14:17:48.859Z,93122.28
2018-05-13T14:20:17.272Z,93121.56
2018-05-13T14:22:45.640Z,93125.14
2018-05-13T14:25:14.038Z,93127.14
2018-05-13T14:27:44.959Z,93125.24
2018-05-13T14:30:13.368Z,93125.90
2018-05-13T14:32:41.776Z,93129.14
2018-05-13T14:35:10.110Z,93125.09
2018-05-13T14:37:38.792Z,93130.36
2018-05-13T14:40:07.168Z,93130.97
2018-05-13T14:42:36.820Z,93128.23
2018-05-13T14:45:05.210Z,93128.14
2018-05-13T14:47:33.577Z,93126.77
2018-05-13T14:50:01.955Z,93120.75
2018-05-13T14:52:30.800Z,93114.68
2018-05-13T14:54:59.180Z,93105.21
2018-05-13T14:57:27.612Z,93104.17
2018-05-13T14:59:56.032Z,93098.91
2018-05-13T15:02:24.414Z,93095.13
2018-05-13T15:04:52.835Z,93085.73
2018-05-13T15:07:28.707Z,93081.88
2018-05-13T15:09:57.127Z,93083.17
2018-05-13T15:12:26.575Z,93075.16
2018-05-13T15:14:55.223Z,93075.59
2018-05-13T15:17:23.625Z,93069.39
2018-05-13T15:19:51.937Z,93072.08
2018-05-13T15:22:20.370Z,93069.56
2018-05-13T15:24:48.814Z,93070.50
2018-05-13T15:27:17.815Z,93073.14
2018-05-13T15:29:46.231Z,93075.28
2018-05-13T15:32:15.992Z,93072.75
2018-05-13T15:34:44.335Z,93071.88
2018-05-13T15:37:12.785Z,93071.36
2018-05-13T15:39:41.443Z,93068.13
2018-05-13T15:42:09.804Z,93068.42
2018-05-13T15:44:38.132Z,93064.11
2018-05-13T15:47:06.483Z,93065.73
2018-05-13T15:49:34.830Z,93066.80
2018-05-13T15:52:03.530Z,93071.91
2018-05-13T15:54:31.843Z,93062.66
2018-05-13T15:57:00.215Z,93065.92
2018-05-13T15:59:28.642Z,93065.08
2018-05-13T16:01:57.067Z,93064.92
2018-05-13T16:04:26.515Z,93061.48
2018-05-13T16:06:55.059Z,93071.26
2018-05-13T16:09:23.864Z,93069.27
2018-05-13T16:11:53.180Z,93067.72
2018-05-13T16:14:21.595Z,93062.01
2018-05-13T16:16:50.290Z,93064.09
2018-05-13T16:19:18.649Z,93065.47
2018-05-13T16:21:47.024Z,93069.52
2018-05-13T16:24:15.419Z,93059.37
2018-05-13T16:26:43.799Z,93067.96
2018-05-13T16:29:13.155Z,93063.56
2018-05-13T16:31:41.538Z,93063.64
2018-05-13T16:34:09.934Z,93069.91
2018-05-13T16:36:38.987Z,93070.41
2018-05-13T16:39:07.405Z,93066.88
2018-05-13T16:41:35.748Z,93063.56
2018-05-13T16:44:04.106Z,93068.85
2018-05-13T16:46:32.495Z,93074.94
2018-05-13T16:49:01.812Z,93080.45
2018-05-13T16:51:30.223Z,93084.23
2018-05-13T16:53:58.733Z,93084.46
2018-05-13T16:56:27.020Z,93077.03
2018-05-13T16:58:55.445Z,93074.14
2018-05-13T17:01:23.796Z,93068.17
2018-05-13T17:03:52.145Z,93071.50
2018-05-13T17:06:20.866Z,93068.41
2018-05-13T17:08:49.269Z,93070.05
2018-05-13T17:11:17.595Z,93072.72
2018-05-13T17:13:46.029Z,93072.48
2018-05-13T17:16:16.397Z,93060.61
2018-05-13T17:18:44.879Z,93066.28
2018-05-13T17:21:13.219Z,93059.31
2018-05-13T17:23:41.574Z,93052.10
2018-05-13T17:26:12.308Z,93045.11
2018-05-13T17:28:42.234Z,93041.78
2018-05-13T17:31:10.640Z,93045.00
2018-05-13T17:33:39.030Z,93058.64
2018-05-13T17:36:08.250Z,93053.89
2018-05-13T17:38:36.557Z,93060.74
2018-05-13T17:41:05.140Z,93054.52
2018-05-13T17:43:33.484Z,93059.75
2018-05-13T17:46:01.866Z,93063.36
2018-05-13T17:48:30.211Z,93060.74
2018-05-13T17:50:58.625Z,93054.03
2018-05-13T17:53:26.987Z,93061.16
2018-05-13T17:55:55.338Z,93064.87
2018-05-13T17:58:23.694Z,93055.17
2018-05-13T18:00:52.073Z,93054.91
2018-05-13T18:03:20.499Z,93064.63
2018-05-13T18:05:49.226Z,93060.38
2018-05-13T18:08:17.575Z,93060.31
2018-05-13T18:10:45.971Z,93051.64
2018-05-13T18:13:14.550Z,93048.53
2018-05-13T18:15:42.885Z,93048.70
2018-05-13T18:18:11.228Z,93050.87
2018-05-13T18:20:39.627Z,93059.95
2018-05-13T18:23:07.943Z,93054.89
2018-05-13T18:25:36.254Z,93054.91
2018-05-13T18:28:04.600Z,93062.41
2018-05-13T18:30:33.341Z,93063.22
2018-05-13T18:33:01.664Z,93062.91
2018-05-13T18:35:30.039Z,93070.31
2018-05-13T18:37:58.689Z,93069.52
2018-05-13T18:40:26.959Z,93069.44
2018-05-13T18:42:55.263Z,93062.34
2018-05-13T18:45:23.763Z,93066.98
2018-05-13T18:47:53.067Z,93070.25
2018-05-13T18:50:23.625Z,93067.86
2018-05-13T18:52:51.950Z,93072.84
2018-05-13T18:55:20.306Z,93075.17
2018-05-13T18:57:49.601Z,93078.09
2018-05-13T19:00:17.914Z,93082.48
2018-05-13T19:02:46.292Z,93079.46
2018-05-13T19:05:16.776Z,93081.19
2018-05-13T19:07:45.165Z,93073.28
2018-05-13T19:10:13.496Z,93070.94
2018-05-13T19:12:42.338Z,93069.58
2018-05-13T19:15:10.675Z,93074.48
2018-05-13T19:17:39.033Z,93079.52
2018-05-13T19:20:07.429Z,93082.09
2018-05-13T19:22:35.759Z,93080.33
2018-05-13T19:25:04.111Z,93090.27
2018-05-13T19:27:32.471Z,93087.77
2018-05-13T19:30:00.791Z,93090.27
2018-05-13T19:32:29.183Z,93091.29
2018-05-13T19:34:57.541Z,93085.05
2018-05-13T19:37:25.863Z,93087.87
2018-05-13T19:39:54.218Z,93084.16
2018-05-13T19:42:22.582Z,93084.85
2018-05-13T19:44:51.156Z,93081.98
2018-05-13T19:47:19.451Z,93085.93
2018-05-13T19:49:47.817Z,93080.30
2018-05-13T19:52:16.175Z,93076.76
2018-05-13T19:54:44.530Z,93073.08
2018-05-13T19:57:12.823Z,93063.02
2018-05-13T19:59:41.095Z,93061.19
2018-05-13T20:02:09.784Z,93060.77
2018-05-13T20:04:38.131Z,93061.00
2018-05-13T20:07:06.503Z,93063.80
2018-05-13T20:09:34.854Z,93061.56
2018-05-13T20:12:03.216Z,93059.24
2018-05-13T20:14:32.499Z,93055.60
2018-05-13T20:17:00.847Z,93059.53
2018-05-13T20:19:29.222Z,93067.08
2018-05-13T20:21:57.889Z,93064.42
2018-05-13T20:24:26.249Z,93058.58
2018-05-13T20:26:54.530Z,93061.05
2018-05-13T20:29:23.170Z,93059.93
2018-05-13T20:31:51.476Z,93056.22
2018-05-13T20:34:19.766Z,93057.48
2018-05-13T20:36:48.141Z,93064.87
2018-05-13T20:39:16.449Z,93067.78
2018-05-13T20:41:44.755Z,93073.88
2018-05-13T20:44:13.062Z,93069.07
2018-05-13T20:46:41.405Z,93060.72
2018-05-13T20:49:10.085Z,93060.67
2018-05-13T20:51:38.368Z,93062.69
2018-05-13T20:54:06.701Z,93062.71
2018-05-13T20:56:35.325Z,93062.38
2018-05-13T20:59:03.918Z,93061.05
2018-05-13T21:01:32.266Z,93069.34
2018-05-13T21:04:00.860Z,93066.44
2018-05-13T21:06:29.205Z,93075.44
2018-05-13T21:08:57.595Z,93072.08
2018-05-13T21:11:26.003Z,93072.94
2018-05-13T21:13:54.266Z,93077.95
2018-05-13T21:16:22.572Z,93077.28
2018-05-13T21:18:50.911Z,93077.05
2018-05-13T21:21:19.248Z,93073.42
2018-05-13T21:23:47.898Z,93067.20
2018-05-13T21:26:16.257Z,93076.78
2018-05-13T21:28:44.631Z,93077.23
2018-05-13T21:31:12.914Z,93085.00
2018-05-13T21:33:41.200Z,93089.37
2018-05-13T21:36:09.531Z,93094.98
2018-05-13T21:38:37.851Z,93094.23
2018-05-13T21:41:06.131Z,93096.72
2018-05-13T21:43:34.819Z,93100.42
2018-05-13T21:46:03.778Z,93104.20
2018-05-13T21:48:32.092Z,93098.20
2018-05-13T21:51:00.876Z,93103.97
2018-05-13T21:53:29.197Z,93110.01
2018-05-13T21:55:57.511Z,93107.67
2018-05-13T21:58:26.523Z,93112.53
2018-05-13T22:00:54.843Z,93114.95
2018-05-13T22:03:23.155Z,93112.69
2018-05-13T22:05:51.543Z,93122.87
2018-05-13T22:08:19.922Z,93122.26
2018-05-13T22:10:49.219Z,93117.80
2018-05-13T22:13:17.523Z,93118.78
2018-05-13T22:15:45.875Z,93116.89
2018-05-13T22:18:14.210Z,93113.28
2018-05-13T22:20:42.552Z,93114.97
2018-05-13T22:23:10.880Z,93114.10
2018-05-13T22:25:39.196Z,93109.23
2018-05-13T22:28:07.581Z,93109.45
2018-05-13T22:30:35.899Z,93105.06
2018-05-13T22:33:04.171Z,93106.02
2018-05-13T22:35:32.443Z,93100.26
2018-05-13T22:38:01.091Z,93098.27
2018-05-13T22:40:29.391Z,93093.88
2018-05-13T22:42:57.679Z,93094.86
2018-05-13T22:45:25.981Z,93087.37
2018-05-13T22:47:54.247Z,93082.41
2018-05-13T22:50:22.519Z,93079.65
2018-05-13T22:52:50.983Z,93080.19
2018-05-13T22:55:19.362Z,93075.70
2018-05-13T22:57:47.834Z,93075.81
2018-05-13T23:00:16.482Z,93078.04
2018-05-13T23:02:44.853Z,93073.22
2018-05-13T23:05:13.210Z,93070.88
2018-05-13T23:07:41.584Z,93066.83
2018-05-13T23:10:10.010Z,93068.62
2018-05-13T23:12:38.346Z,93068.78
2018-05-13T23:15:06.716Z,93062.11
2018-05-13T23:17:35.086Z,93055.85
2018-05-13T23:20:03.770Z,93047.32
2018-05-13T23:22:33.020Z,93048.16
2018-05-13T23:25:01.425Z,93047.16
2018-05-13T23:27:29.943Z,93032.09
2018-05-13T23:29:58.300Z,93031.54
2018-05-13T23:32:26.660Z,93014.69
2018-05-13T23:34:55.430Z,93001.61
2018-05-13T23:37:23.835Z,93008.90
2018-05-13T23:39:52.203Z,93021.52
2018-05-13T23:42:21.307Z,93039.64
2018-05-13T23:44:49.815Z,93045.91
2018-05-13T23:47:18.178Z,93045.27
2018-05-13T23:49:46.520Z,93052.22
2018-05-13T23:52:15.203Z,93039.34
2018-05-13T23:54:43.541Z,93040.88
2018-05-13T23:57:11.894Z,93044.36
2018-05-13T23:59:40.235Z,93045.32
